sensor_id;sensor_type;location;lat;lon;timestamp;pressure;altitude;pressure_sealevel;temperature;humidity
64019;BME280;66942;52.138;5.216;2023-02-10T00:01:25;103593.0;;;1.66;73.42
64019;BME280;66942;52.138;5.216;2023-02-10T00:03:03;103594.0;;;1.2;75.05
64019;BME280;66942;52.138;5.216;2023-02-10T00:04:39;103595.0;;;1.11;75.3
64019;BME280;66942;52.138;5.216;2023-02-10T00:06:17;103592.0;;;1.28;74.56
64019;BME280;66942;52.138;5.216;2023-02-10T00:09:30;103589.00000000001;;;1.2;74.8
64019;BME280;66942;52.138;5.216;2023-02-10T00:11:07;103588.00000000001;;;1.0;76.08
64019;BME280;66942;52.138;5.216;2023-02-10T00:12:46;103590.00000000001;;;0.87;76.12
64019;BME280;66942;52.138;5.216;2023-02-10T00:16:00;103592.0;;;0.79;76.55
64019;BME280;66942;52.138;5.216;2023-02-10T00:17:38;103590.00000000001;;;0.95;75.81
64019;BME280;66942;52.138;5.216;2023-02-10T00:19:14;103592.0;;;0.8;76.41
64019;BME280;66942;52.138;5.216;2023-02-10T00:20:50;103586.99999999999;;;0.81;76.38
64019;BME280;66942;52.138;5.216;2023-02-10T00:24:03;103590.00000000001;;;1.04;75.52
64019;BME280;66942;52.138;5.216;2023-02-10T00:25:40;103590.00000000001;;;1.07;75.38
64019;BME280;66942;52.138;5.216;2023-02-10T00:27:23;103589.00000000001;;;1.43;74.22
64019;BME280;66942;52.138;5.216;2023-02-10T00:30:37;103590.00000000001;;;1.46;73.8
64019;BME280;66942;52.138;5.216;2023-02-10T00:32:13;103590.00000000001;;;1.33;74.48
64019;BME280;66942;52.138;5.216;2023-02-10T00:33:49;103592.0;;;1.19;74.88
64019;BME280;66942;52.138;5.216;2023-02-10T00:35:26;103593.0;;;1.16;74.8
64019;BME280;66942;52.138;5.216;2023-02-10T00:38:39;103588.00000000001;;;1.29;74.53
64019;BME280;66942;52.138;5.216;2023-02-10T00:40:17;103586.99999999999;;;1.37;74.19
64019;BME280;66942;52.138;5.216;2023-02-10T00:41:53;103592.0;;;1.54;73.58
64019;BME280;66942;52.138;5.216;2023-02-10T00:45:07;103594.0;;;1.74;72.97
64019;BME280;66942;52.138;5.216;2023-02-10T00:46:44;103590.00000000001;;;1.52;73.49
64019;BME280;66942;52.138;5.216;2023-02-10T00:48:20;103593.0;;;1.56;73.3
64019;BME280;66942;52.138;5.216;2023-02-10T00:51:32;103592.0;;;1.56;73.02
64019;BME280;66942;52.138;5.216;2023-02-10T00:53:09;103592.0;;;1.37;73.73
64019;BME280;66942;52.138;5.216;2023-02-10T00:54:45;103592.0;;;1.5;73.27
64019;BME280;66942;52.138;5.216;2023-02-10T00:56:21;103592.0;;;1.45;73.5
64019;BME280;66942;52.138;5.216;2023-02-10T00:59:34;103593.0;;;1.6;72.99
64019;BME280;66942;52.138;5.216;2023-02-10T01:01:10;103591.00000000001;;;1.68;72.69
64019;BME280;66942;52.138;5.216;2023-02-10T01:02:47;103595.0;;;1.46;73.12
64019;BME280;66942;52.138;5.216;2023-02-10T01:06:00;103600.0;;;1.11;74.47
64019;BME280;66942;52.138;5.216;2023-02-10T01:07:36;103599.0;;;1.34;73.72
64019;BME280;66942;52.138;5.216;2023-02-10T01:09:12;103597.0;;;1.37;73.75
64019;BME280;66942;52.138;5.216;2023-02-10T01:12:24;103595.0;;;1.32;73.74
64019;BME280;66942;52.138;5.216;2023-02-10T01:14:00;103594.0;;;0.91;75.16
64019;BME280;66942;52.138;5.216;2023-02-10T01:15:41;103594.0;;;0.94;75.19
64019;BME280;66942;52.138;5.216;2023-02-10T01:17:17;103603.0;;;1.06;74.67
64019;BME280;66942;52.138;5.216;2023-02-10T01:20:30;103601.0;;;1.07;74.59
64019;BME280;66942;52.138;5.216;2023-02-10T01:22:07;103604.0;;;1.04;74.48
64019;BME280;66942;52.138;5.216;2023-02-10T01:23:43;103607.0;;;0.87;75.06
64019;BME280;66942;52.138;5.216;2023-02-10T01:26:56;103621.0;;;1.15;74.28
64019;BME280;66942;52.138;5.216;2023-02-10T01:28:33;103618.0;;;1.11;74.33
64019;BME280;66942;52.138;5.216;2023-02-10T01:30:11;103620.0;;;1.34;73.67
64019;BME280;66942;52.138;5.216;2023-02-10T01:33:24;103618.0;;;1.16;73.91
64019;BME280;66942;52.138;5.216;2023-02-10T01:35:00;103616.00000000001;;;1.0;74.64
64019;BME280;66942;52.138;5.216;2023-02-10T01:36:37;103617.0;;;1.05;74.47
64019;BME280;66942;52.138;5.216;2023-02-10T01:38:13;103608.0;;;0.94;74.73
64019;BME280;66942;52.138;5.216;2023-02-10T01:41:25;103608.99999999999;;;0.93;74.87
64019;BME280;66942;52.138;5.216;2023-02-10T01:43:10;103614.00000000001;;;0.8;75.19
64019;BME280;66942;52.138;5.216;2023-02-10T01:45:27;103616.00000000001;;;0.78;75.34
64019;BME280;66942;52.138;5.216;2023-02-10T01:47:07;103627.0;;;1.03;74.64
64019;BME280;66942;52.138;5.216;2023-02-10T01:48:44;103626.0;;;1.15;74.19
64019;BME280;66942;52.138;5.216;2023-02-10T01:52:03;103617.0;;;0.95;74.53
64019;BME280;66942;52.138;5.216;2023-02-10T01:53:43;103618.0;;;0.74;75.41
64019;BME280;66942;52.138;5.216;2023-02-10T01:55:23;103616.00000000001;;;0.64;75.86
64019;BME280;66942;52.138;5.216;2023-02-10T01:57:01;103617.0;;;0.62;75.91
64019;BME280;66942;52.138;5.216;2023-02-10T02:00:15;103615.00000000001;;;0.81;75.24
64019;BME280;66942;52.138;5.216;2023-02-10T02:01:51;103616.00000000001;;;0.98;74.36
64019;BME280;66942;52.138;5.216;2023-02-10T02:03:27;103613.00000000001;;;0.96;74.3
64019;BME280;66942;52.138;5.216;2023-02-10T02:06:43;103618.0;;;0.95;74.45
64019;BME280;66942;52.138;5.216;2023-02-10T02:08:22;103619.0;;;1.16;73.89
64019;BME280;66942;52.138;5.216;2023-02-10T02:10:02;103627.0;;;1.29;73.28
64019;BME280;66942;52.138;5.216;2023-02-10T02:11:47;103627.0;;;1.35;73.08
64019;BME280;66942;52.138;5.216;2023-02-10T02:15:28;103622.0;;;1.03;73.95
64019;BME280;66942;52.138;5.216;2023-02-10T02:17:16;103620.0;;;0.89;74.44
64019;BME280;66942;52.138;5.216;2023-02-10T02:19:01;103619.0;;;0.95;74.34
64019;BME280;66942;52.138;5.216;2023-02-10T02:21:05;103624.0;;;1.16;73.81
64019;BME280;66942;52.138;5.216;2023-02-10T02:24:41;103615.00000000001;;;1.44;72.48
64019;BME280;66942;52.138;5.216;2023-02-10T02:27:06;103622.0;;;1.25;73.12
64019;BME280;66942;52.138;5.216;2023-02-10T02:29:34;103625.0;;;1.37;72.66
64019;BME280;66942;52.138;5.216;2023-02-10T02:31:52;103629.0;;;1.26;73.14
64019;BME280;66942;52.138;5.216;2023-02-10T02:33:37;103619.0;;;0.89;74.22
64019;BME280;66942;52.138;5.216;2023-02-10T02:35:19;103621.0;;;0.75;74.72
64019;BME280;66942;52.138;5.216;2023-02-10T02:37:02;103620.0;;;0.66;75.06
64019;BME280;66942;52.138;5.216;2023-02-10T02:40:19;103625.0;;;0.66;74.91
64019;BME280;66942;52.138;5.216;2023-02-10T02:42:11;103628.0;;;0.89;73.86
64019;BME280;66942;52.138;5.216;2023-02-10T02:43:50;103633.99999999999;;;0.74;74.67
64019;BME280;66942;52.138;5.216;2023-02-10T02:45:31;103633.99999999999;;;0.89;74.09
64019;BME280;66942;52.138;5.216;2023-02-10T02:47:21;103634.99999999999;;;0.56;75.11
64019;BME280;66942;52.138;5.216;2023-02-10T02:50:53;103640.00000000001;;;0.46;75.45
64019;BME280;66942;52.138;5.216;2023-02-10T02:52:45;103639.00000000001;;;0.5;75.47
64019;BME280;66942;52.138;5.216;2023-02-10T02:54:34;103638.00000000001;;;0.45;75.72
64019;BME280;66942;52.138;5.216;2023-02-10T02:56:21;103633.99999999999;;;0.36;75.89
64019;BME280;66942;52.138;5.216;2023-02-10T02:58:11;103628.0;;;0.78;74.5
64019;BME280;66942;52.138;5.216;2023-02-10T02:59:57;103633.99999999999;;;0.61;74.66
64019;BME280;66942;52.138;5.216;2023-02-10T03:03:18;103634.99999999999;;;0.82;74.33
64019;BME280;66942;52.138;5.216;2023-02-10T03:04:55;103631.0;;;0.97;73.59
64019;BME280;66942;52.138;5.216;2023-02-10T03:06:32;103631.0;;;0.97;73.53
64019;BME280;66942;52.138;5.216;2023-02-10T03:08:08;103623.0;;;0.76;74.0
64019;BME280;66942;52.138;5.216;2023-02-10T03:11:21;103617.0;;;0.54;74.81
64019;BME280;66942;52.138;5.216;2023-02-10T03:12:58;103624.0;;;0.68;74.16
64019;BME280;66942;52.138;5.216;2023-02-10T03:14:34;103626.0;;;0.52;74.94
64019;BME280;66942;52.138;5.216;2023-02-10T03:17:46;103626.0;;;0.63;74.77
64019;BME280;66942;52.138;5.216;2023-02-10T03:19:22;103625.0;;;0.89;73.66
64019;BME280;66942;52.138;5.216;2023-02-10T03:20:59;103626.0;;;1.1;73.05
64019;BME280;66942;52.138;5.216;2023-02-10T03:24:11;103629.0;;;1.07;72.97
64019;BME280;66942;52.138;5.216;2023-02-10T03:25:47;103629.0;;;0.78;73.61
64019;BME280;66942;52.138;5.216;2023-02-10T03:27:23;103628.0;;;1.08;72.91
64019;BME280;66942;52.138;5.216;2023-02-10T03:30:38;103625.0;;;1.1;72.81
64019;BME280;66942;52.138;5.216;2023-02-10T03:32:15;103626.0;;;0.96;73.2
64019;BME280;66942;52.138;5.216;2023-02-10T03:33:51;103626.0;;;0.82;73.45
64019;BME280;66942;52.138;5.216;2023-02-10T03:35:27;103629.0;;;0.68;74.02
64019;BME280;66942;52.138;5.216;2023-02-10T03:38:39;103628.0;;;0.67;74.0
64019;BME280;66942;52.138;5.216;2023-02-10T03:40:17;103630.0;;;0.49;74.61
64019;BME280;66942;52.138;5.216;2023-02-10T03:41:53;103627.0;;;0.46;74.78
64019;BME280;66942;52.138;5.216;2023-02-10T03:45:07;103638.00000000001;;;0.48;74.74
64019;BME280;66942;52.138;5.216;2023-02-10T03:46:43;103642.0;;;0.62;74.3
64019;BME280;66942;52.138;5.216;2023-02-10T03:48:19;103643.0;;;0.83;73.31
64019;BME280;66942;52.138;5.216;2023-02-10T03:51:31;103640.00000000001;;;0.95;72.88
64019;BME280;66942;52.138;5.216;2023-02-10T03:53:08;103634.99999999999;;;0.89;73.14
64019;BME280;66942;52.138;5.216;2023-02-10T03:54:44;103636.99999999999;;;1.04;72.67
64019;BME280;66942;52.138;5.216;2023-02-10T03:56:20;103632.0;;;1.1;72.34
64019;BME280;66942;52.138;5.216;2023-02-10T03:59:33;103633.99999999999;;;0.66;73.73
64019;BME280;66942;52.138;5.216;2023-02-10T04:01:11;103636.99999999999;;;0.42;74.69
64019;BME280;66942;52.138;5.216;2023-02-10T04:02:49;103632.0;;;0.54;74.27
64019;BME280;66942;52.138;5.216;2023-02-10T04:06:01;103633.0;;;0.86;73.33
64019;BME280;66942;52.138;5.216;2023-02-10T04:07:37;103638.00000000001;;;0.84;72.91
64019;BME280;66942;52.138;5.216;2023-02-10T04:09:15;103636.99999999999;;;0.98;72.78
64019;BME280;66942;52.138;5.216;2023-02-10T04:12:27;103638.00000000001;;;1.06;72.41
64019;BME280;66942;52.138;5.216;2023-02-10T04:14:03;103642.0;;;1.05;72.49
64019;BME280;66942;52.138;5.216;2023-02-10T04:15:39;103641.00000000001;;;1.17;72.11
64019;BME280;66942;52.138;5.216;2023-02-10T04:17:15;103643.0;;;0.93;72.8
64019;BME280;66942;52.138;5.216;2023-02-10T04:20:28;103642.0;;;0.78;73.08
64019;BME280;66942;52.138;5.216;2023-02-10T04:22:04;103646.0;;;0.54;74.02
64019;BME280;66942;52.138;5.216;2023-02-10T04:23:40;103643.0;;;0.57;74.02
64019;BME280;66942;52.138;5.216;2023-02-10T04:26:52;103645.0;;;0.87;73.12
64019;BME280;66942;52.138;5.216;2023-02-10T04:28:29;103646.0;;;0.81;73.16
64019;BME280;66942;52.138;5.216;2023-02-10T04:30:06;103651.0;;;0.91;72.61
64019;BME280;66942;52.138;5.216;2023-02-10T04:33:20;103658.99999999999;;;0.82;73.17
64019;BME280;66942;52.138;5.216;2023-02-10T04:34:57;103657.0;;;0.65;73.78
64019;BME280;66942;52.138;5.216;2023-02-10T04:36:33;103656.0;;;0.36;74.7
64019;BME280;66942;52.138;5.216;2023-02-10T04:38:09;103655.0;;;0.35;74.91
64019;BME280;66942;52.138;5.216;2023-02-10T04:41:23;103653.0;;;0.25;75.3
64019;BME280;66942;52.138;5.216;2023-02-10T04:42:59;103650.0;;;0.26;75.24
64019;BME280;66942;52.138;5.216;2023-02-10T04:44:35;103654.0;;;0.53;74.3
64019;BME280;66942;52.138;5.216;2023-02-10T04:47:49;103652.0;;;0.64;73.83
64019;BME280;66942;52.138;5.216;2023-02-10T04:49:26;103649.0;;;0.79;73.42
64019;BME280;66942;52.138;5.216;2023-02-10T04:51:06;103645.0;;;0.96;72.8
64019;BME280;66942;52.138;5.216;2023-02-10T04:54:19;103641.00000000001;;;0.73;73.42
64019;BME280;66942;52.138;5.216;2023-02-10T04:55:56;103634.99999999999;;;0.9;73.03
64019;BME280;66942;52.138;5.216;2023-02-10T04:57:32;103626.0;;;0.76;73.16
64019;BME280;66942;52.138;5.216;2023-02-10T04:59:08;103630.0;;;0.7;73.31
64019;BME280;66942;52.138;5.216;2023-02-10T05:02:21;103624.0;;;0.95;72.69
64019;BME280;66942;52.138;5.216;2023-02-10T05:03:57;103622.0;;;0.88;72.7
64019;BME280;66942;52.138;5.216;2023-02-10T05:05:33;103627.0;;;0.93;72.52
64019;BME280;66942;52.138;5.216;2023-02-10T05:08:49;103636.99999999999;;;1.01;72.42
64019;BME280;66942;52.138;5.216;2023-02-10T05:10:25;103641.00000000001;;;1.22;71.74
64019;BME280;66942;52.138;5.216;2023-02-10T05:12:04;103639.00000000001;;;1.04;72.19
64019;BME280;66942;52.138;5.216;2023-02-10T05:13:40;103642.0;;;0.94;72.72
64019;BME280;66942;52.138;5.216;2023-02-10T05:16:54;103636.99999999999;;;0.78;73.28
64019;BME280;66942;52.138;5.216;2023-02-10T05:18:30;103636.99999999999;;;0.66;73.49
64019;BME280;66942;52.138;5.216;2023-02-10T05:20:08;103640.00000000001;;;0.61;73.8
64019;BME280;66942;52.138;5.216;2023-02-10T05:23:22;103631.0;;;0.83;72.89
64019;BME280;66942;52.138;5.216;2023-02-10T05:24:58;103633.99999999999;;;1.05;72.36
64019;BME280;66942;52.138;5.216;2023-02-10T05:26:34;103641.00000000001;;;1.24;71.75
64019;BME280;66942;52.138;5.216;2023-02-10T05:29:46;103646.0;;;1.23;71.47
64019;BME280;66942;52.138;5.216;2023-02-10T05:31:23;103651.0;;;1.28;71.55
64019;BME280;66942;52.138;5.216;2023-02-10T05:32:59;103646.0;;;1.16;71.97
64019;BME280;66942;52.138;5.216;2023-02-10T05:34:35;103644.0;;;1.37;71.38
64019;BME280;66942;52.138;5.216;2023-02-10T05:37:47;103649.0;;;1.14;71.95
64019;BME280;66942;52.138;5.216;2023-02-10T05:39:23;103651.0;;;0.74;73.47
64019;BME280;66942;52.138;5.216;2023-02-10T05:41:01;103647.0;;;0.84;73.27
64019;BME280;66942;52.138;5.216;2023-02-10T05:44:13;103642.0;;;1.04;72.72
64019;BME280;66942;52.138;5.216;2023-02-10T05:45:49;103636.99999999999;;;1.27;71.95
64019;BME280;66942;52.138;5.216;2023-02-10T05:47:25;103641.00000000001;;;1.31;71.77
64019;BME280;66942;52.138;5.216;2023-02-10T05:50:40;103638.00000000001;;;1.33;71.58
64019;BME280;66942;52.138;5.216;2023-02-10T05:52:16;103640.00000000001;;;1.45;71.27
64019;BME280;66942;52.138;5.216;2023-02-10T05:53:53;103638.00000000001;;;1.22;71.91
64019;BME280;66942;52.138;5.216;2023-02-10T05:55:30;103636.99999999999;;;1.22;72.11
64019;BME280;66942;52.138;5.216;2023-02-10T05:58:43;103629.0;;;1.06;72.55
64019;BME280;66942;52.138;5.216;2023-02-10T06:00:20;103626.0;;;0.88;73.34
64019;BME280;66942;52.138;5.216;2023-02-10T06:01:56;103624.0;;;0.97;73.19
64019;BME280;66942;52.138;5.216;2023-02-10T06:05:08;103634.99999999999;;;1.31;72.11
64019;BME280;66942;52.138;5.216;2023-02-10T06:06:46;103640.00000000001;;;1.3;71.97
64019;BME280;66942;52.138;5.216;2023-02-10T06:08:23;103645.0;;;1.32;71.92
64019;BME280;66942;52.138;5.216;2023-02-10T06:11:36;103646.0;;;1.33;71.74
64019;BME280;66942;52.138;5.216;2023-02-10T06:13:12;103648.0;;;1.33;71.91
64019;BME280;66942;52.138;5.216;2023-02-10T06:14:48;103642.0;;;1.1;72.48
64019;BME280;66942;52.138;5.216;2023-02-10T06:16:24;103651.0;;;0.73;74.12
64019;BME280;66942;52.138;5.216;2023-02-10T06:19:38;103646.0;;;0.96;73.5
64019;BME280;66942;52.138;5.216;2023-02-10T06:21:16;103648.0;;;0.87;73.63
64019;BME280;66942;52.138;5.216;2023-02-10T06:22:52;103652.0;;;1.16;72.8
64019;BME280;66942;52.138;5.216;2023-02-10T06:26:04;103654.0;;;1.28;72.19
64019;BME280;66942;52.138;5.216;2023-02-10T06:27:40;103656.0;;;1.17;72.45
64019;BME280;66942;52.138;5.216;2023-02-10T06:29:17;103666.00000000001;;;1.11;72.83
64019;BME280;66942;52.138;5.216;2023-02-10T06:32:30;103667.0;;;1.11;72.97
64019;BME280;66942;52.138;5.216;2023-02-10T06:34:08;103661.99999999999;;;1.13;72.84
64019;BME280;66942;52.138;5.216;2023-02-10T06:35:45;103658.0;;;1.0;73.44
64019;BME280;66942;52.138;5.216;2023-02-10T06:37:23;103659.99999999999;;;1.06;72.94
64019;BME280;66942;52.138;5.216;2023-02-10T06:40:36;103656.0;;;0.97;73.58
64019;BME280;66942;52.138;5.216;2023-02-10T06:42:12;103661.99999999999;;;1.11;73.16
64019;BME280;66942;52.138;5.216;2023-02-10T06:43:49;103666.00000000001;;;1.27;72.63
64019;BME280;66942;52.138;5.216;2023-02-10T06:47:00;103665.00000000001;;;1.23;72.72
64019;BME280;66942;52.138;5.216;2023-02-10T06:48:37;103667.0;;;1.25;72.86
64019;BME280;66942;52.138;5.216;2023-02-10T06:50:13;103665.00000000001;;;1.16;73.19
64019;BME280;66942;52.138;5.216;2023-02-10T06:53:26;103666.00000000001;;;1.07;73.53
64019;BME280;66942;52.138;5.216;2023-02-10T06:55:03;103673.0;;;0.76;74.58
64019;BME280;66942;52.138;5.216;2023-02-10T06:56:39;103674.0;;;1.05;73.89
64019;BME280;66942;52.138;5.216;2023-02-10T06:58:16;103672.0;;;0.92;74.55
64019;BME280;66942;52.138;5.216;2023-02-10T07:01:29;103674.0;;;1.17;73.69
64019;BME280;66942;52.138;5.216;2023-02-10T07:03:05;103673.0;;;1.36;73.0
64019;BME280;66942;52.138;5.216;2023-02-10T07:04:41;103671.0;;;1.07;73.97
64019;BME280;66942;52.138;5.216;2023-02-10T07:07:55;103673.0;;;1.34;73.22
64019;BME280;66942;52.138;5.216;2023-02-10T07:09:32;103675.0;;;1.43;73.16
64019;BME280;66942;52.138;5.216;2023-02-10T07:11:08;103677.0;;;1.42;72.83
64019;BME280;66942;52.138;5.216;2023-02-10T07:14:20;103678.0;;;1.7;72.41
64019;BME280;66942;52.138;5.216;2023-02-10T07:15:56;103678.0;;;1.56;72.99
64019;BME280;66942;52.138;5.216;2023-02-10T07:17:33;103668.0;;;1.22;74.02
64019;BME280;66942;52.138;5.216;2023-02-10T07:20:45;103667.0;;;1.25;74.33
64019;BME280;66942;52.138;5.216;2023-02-10T07:22:21;103673.0;;;1.65;72.98
64019;BME280;66942;52.138;5.216;2023-02-10T07:23:57;103675.0;;;1.41;73.97
64019;BME280;66942;52.138;5.216;2023-02-10T07:25:33;103682.0;;;1.66;73.47
64019;BME280;66942;52.138;5.216;2023-02-10T07:28:46;103680.0;;;1.79;73.0
64019;BME280;66942;52.138;5.216;2023-02-10T07:30:23;103690.00000000001;;;1.78;73.33
64019;BME280;66942;52.138;5.216;2023-02-10T07:32:00;103689.00000000001;;;1.55;74.24
64019;BME280;66942;52.138;5.216;2023-02-10T07:35:13;103690.00000000001;;;1.36;74.88
64019;BME280;66942;52.138;5.216;2023-02-10T07:36:53;103694.0;;;1.37;75.36
64019;BME280;66942;52.138;5.216;2023-02-10T07:38:30;103703.0;;;1.48;75.12
64019;BME280;66942;52.138;5.216;2023-02-10T07:40:09;103709.99999999999;;;1.79;74.45
64019;BME280;66942;52.138;5.216;2023-02-10T07:43:21;103720.0;;;1.89;73.89
64019;BME280;66942;52.138;5.216;2023-02-10T07:44:58;103717.0;;;2.0;74.02
64019;BME280;66942;52.138;5.216;2023-02-10T07:46:34;103704.0;;;2.14;73.64
64019;BME280;66942;52.138;5.216;2023-02-10T07:49:47;103709.99999999999;;;2.27;73.58
64019;BME280;66942;52.138;5.216;2023-02-10T07:51:24;103722.0;;;1.88;74.86
64019;BME280;66942;52.138;5.216;2023-02-10T07:53:00;103726.0;;;1.81;74.8
64019;BME280;66942;52.138;5.216;2023-02-10T07:56:13;103723.0;;;1.81;74.86
64019;BME280;66942;52.138;5.216;2023-02-10T07:57:51;103719.0;;;1.93;74.3
64019;BME280;66942;52.138;5.216;2023-02-10T07:59:28;103714.00000000001;;;2.19;73.83
64019;BME280;66942;52.138;5.216;2023-02-10T08:01:06;103715.00000000001;;;2.25;73.97
64019;BME280;66942;52.138;5.216;2023-02-10T08:04:19;103713.00000000001;;;2.32;74.19
64019;BME280;66942;52.138;5.216;2023-02-10T08:05:55;103714.00000000001;;;2.36;73.91
64019;BME280;66942;52.138;5.216;2023-02-10T08:07:32;103723.0;;;2.27;74.99
64019;BME280;66942;52.138;5.216;2023-02-10T08:10:47;103717.0;;;2.04;75.47
64019;BME280;66942;52.138;5.216;2023-02-10T08:12:23;103720.0;;;2.1;76.19
64019;BME280;66942;52.138;5.216;2023-02-10T08:14:00;103708.99999999999;;;2.46;74.77
64019;BME280;66942;52.138;5.216;2023-02-10T08:15:39;103715.00000000001;;;2.5;74.41
64019;BME280;66942;52.138;5.216;2023-02-10T08:18:51;103714.00000000001;;;2.64;74.05
64019;BME280;66942;52.138;5.216;2023-02-10T08:20:27;103708.99999999999;;;2.67;74.24
64019;BME280;66942;52.138;5.216;2023-02-10T08:22:03;103717.0;;;2.64;74.83
64019;BME280;66942;52.138;5.216;2023-02-10T08:25:16;103717.0;;;2.57;75.78
64019;BME280;66942;52.138;5.216;2023-02-10T08:26:52;103717.0;;;2.8;75.44
64019;BME280;66942;52.138;5.216;2023-02-10T08:28:29;103708.99999999999;;;2.88;75.8
64019;BME280;66942;52.138;5.216;2023-02-10T08:31:43;103711.99999999999;;;3.15;74.97
64019;BME280;66942;52.138;5.216;2023-02-10T08:33:19;103701.0;;;3.25;75.09
64019;BME280;66942;52.138;5.216;2023-02-10T08:34:55;103708.0;;;3.35;74.86
64019;BME280;66942;52.138;5.216;2023-02-10T08:38:09;103708.99999999999;;;3.12;74.8
64019;BME280;66942;52.138;5.216;2023-02-10T08:39:45;103708.0;;;3.34;74.83
64019;BME280;66942;52.138;5.216;2023-02-10T08:41:21;103708.0;;;3.61;74.06
64019;BME280;66942;52.138;5.216;2023-02-10T08:42:57;103708.0;;;3.57;73.91
64019;BME280;66942;52.138;5.216;2023-02-10T08:46:11;103708.99999999999;;;3.69;73.73
64019;BME280;66942;52.138;5.216;2023-02-10T08:47:48;103714.00000000001;;;3.81;73.52
64019;BME280;66942;52.138;5.216;2023-02-10T08:49:25;103715.00000000001;;;3.88;73.13
64019;BME280;66942;52.138;5.216;2023-02-10T08:52:43;103716.00000000001;;;4.1;72.66
64019;BME280;66942;52.138;5.216;2023-02-10T08:54:20;103727.0;;;3.96;73.02
64019;BME280;66942;52.138;5.216;2023-02-10T08:55:59;103724.0;;;3.96;73.08
64019;BME280;66942;52.138;5.216;2023-02-10T08:57:38;103716.00000000001;;;4.03;72.83
64019;BME280;66942;52.138;5.216;2023-02-10T09:00:52;103717.0;;;4.26;72.16
64019;BME280;66942;52.138;5.216;2023-02-10T09:02:30;103723.0;;;4.32;72.03
64019;BME280;66942;52.138;5.216;2023-02-10T09:04:07;103728.0;;;4.33;72.05
64019;BME280;66942;52.138;5.216;2023-02-10T09:07:22;103724.0;;;4.3;72.09
64019;BME280;66942;52.138;5.216;2023-02-10T09:09:00;103728.0;;;4.14;72.77
64019;BME280;66942;52.138;5.216;2023-02-10T09:10:38;103732.0;;;4.38;72.25
64019;BME280;66942;52.138;5.216;2023-02-10T09:12:14;103738.00000000001;;;4.38;72.41
64019;BME280;66942;52.138;5.216;2023-02-10T09:15:28;103733.99999999999;;;4.41;72.56
64019;BME280;66942;52.138;5.216;2023-02-10T09:17:04;103736.99999999999;;;4.36;72.97
64019;BME280;66942;52.138;5.216;2023-02-10T09:18:41;103730.0;;;4.41;73.19
64019;BME280;66942;52.138;5.216;2023-02-10T09:21:55;103732.0;;;4.46;73.05
64019;BME280;66942;52.138;5.216;2023-02-10T09:23:32;103733.0;;;4.62;73.02
64019;BME280;66942;52.138;5.216;2023-02-10T09:25:08;103733.0;;;4.87;73.09
64019;BME280;66942;52.138;5.216;2023-02-10T09:28:22;103739.00000000001;;;4.96;73.31
64019;BME280;66942;52.138;5.216;2023-02-10T09:29:59;103733.99999999999;;;5.2;73.31
64019;BME280;66942;52.138;5.216;2023-02-10T09:31:36;103738.00000000001;;;5.57;71.69
64019;BME280;66942;52.138;5.216;2023-02-10T09:33:12;103739.00000000001;;;5.65;72.45
64019;BME280;66942;52.138;5.216;2023-02-10T09:36:24;103736.99999999999;;;6.18;71.05
64019;BME280;66942;52.138;5.216;2023-02-10T09:38:00;103734.99999999999;;;6.43;69.92
64019;BME280;66942;52.138;5.216;2023-02-10T09:39:38;103733.99999999999;;;6.57;69.55
64019;BME280;66942;52.138;5.216;2023-02-10T09:43:14;103739.00000000001;;;6.53;70.17
64019;BME280;66942;52.138;5.216;2023-02-10T09:45:09;103740.00000000001;;;6.77;68.83
64019;BME280;66942;52.138;5.216;2023-02-10T09:47:01;103733.0;;;7.11;67.88
64019;BME280;66942;52.138;5.216;2023-02-10T09:49:07;103736.99999999999;;;7.15;67.06
64019;BME280;66942;52.138;5.216;2023-02-10T09:50:55;103730.0;;;7.24;66.14
64019;BME280;66942;52.138;5.216;2023-02-10T09:52:48;103731.0;;;7.42;66.02
64019;BME280;66942;52.138;5.216;2023-02-10T09:54:31;103726.0;;;7.39;65.49
64019;BME280;66942;52.138;5.216;2023-02-10T09:56:14;103728.0;;;7.66;64.56
64019;BME280;66942;52.138;5.216;2023-02-10T09:59:37;103729.0;;;7.72;65.72
64019;BME280;66942;52.138;5.216;2023-02-10T10:01:17;103730.0;;;7.75;64.2
64019;BME280;66942;52.138;5.216;2023-02-10T10:02:58;103729.0;;;7.96;64.44
64019;BME280;66942;52.138;5.216;2023-02-10T10:04:37;103727.0;;;7.92;63.66
64019;BME280;66942;52.138;5.216;2023-02-10T10:07:58;103740.00000000001;;;7.99;63.48
64019;BME280;66942;52.138;5.216;2023-02-10T10:09:40;103738.00000000001;;;7.79;64.35
64019;BME280;66942;52.138;5.216;2023-02-10T10:11:24;103739.00000000001;;;7.7;64.44
64019;BME280;66942;52.138;5.216;2023-02-10T10:13:02;103743.0;;;7.89;64.16
64019;BME280;66942;52.138;5.216;2023-02-10T10:16:24;103740.00000000001;;;7.87;63.95
64019;BME280;66942;52.138;5.216;2023-02-10T10:18:10;103734.99999999999;;;7.59;64.48
64019;BME280;66942;52.138;5.216;2023-02-10T10:20:04;103730.0;;;7.44;65.3
64019;BME280;66942;52.138;5.216;2023-02-10T10:21:51;103723.0;;;7.54;65.41
64019;BME280;66942;52.138;5.216;2023-02-10T10:23:44;103722.0;;;7.55;65.55
64019;BME280;66942;52.138;5.216;2023-02-10T10:25:40;103719.0;;;7.22;66.23
64019;BME280;66942;52.138;5.216;2023-02-10T10:28:23;103718.0;;;7.41;66.23
64019;BME280;66942;52.138;5.216;2023-02-10T10:30:09;103717.0;;;7.31;66.17
64019;BME280;66942;52.138;5.216;2023-02-10T10:31:52;103717.0;;;7.33;66.27
64019;BME280;66942;52.138;5.216;2023-02-10T10:35:20;103717.0;;;7.43;66.3
64019;BME280;66942;52.138;5.216;2023-02-10T10:36:59;103708.99999999999;;;7.37;66.98
64019;BME280;66942;52.138;5.216;2023-02-10T10:38:42;103707.0;;;7.53;66.45
64019;BME280;66942;52.138;5.216;2023-02-10T10:40:25;103705.0;;;7.63;66.34
64019;BME280;66942;52.138;5.216;2023-02-10T10:43:56;103705.0;;;7.43;66.3
64019;BME280;66942;52.138;5.216;2023-02-10T10:45:38;103713.00000000001;;;7.49;66.22